Time;durP1;ratioP1;P1;durP2;ratioP2;P2;SDS_P1;SDS_P2;PMS_P1;PMS_P2;Temp;Humidity;BMP_temperature;BMP_pressure;BME280_temperature;BME280_humidity;BME280_pressure;Samples;Min_cycle;Max_cycle;Signal;HPM_P1;HPM_P2
2022/11/09 00:00:34;;;;;;;6.30;1.65;;;;;;;;;;5043191;28;20012;-63
2022/11/09 00:03:00;;;;;;;2.95;1.20;;;;;;;;;;5047311;28;20100;-63
2022/11/09 00:05:25;;;;;;;4.38;1.15;;;;;;;;;;5048579;28;20607;-63
2022/11/09 00:07:50;;;;;;;8.25;1.20;;;;;;;;;;5047754;28;20036;-63
2022/11/09 00:10:16;;;;;;;10.95;1.63;;;;;;;;;;5043193;28;20041;-63
2022/11/09 00:12:41;;;;;;;4.43;1.13;;;;;;;;;;5046880;28;20438;-62
2022/11/09 00:15:07;;;;;;;5.10;1.38;;;;;;;;;;5047584;28;20028;-63
2022/11/09 00:17:32;;;;;;;7.35;1.75;;;;;;;;;;5042687;28;20114;-63
2022/11/09 00:19:57;;;;;;;6.05;1.35;;;;;;;;;;5042962;28;20040;-63
2022/11/09 00:22:23;;;;;;;5.40;1.35;;;;;;;;;;5028409;28;20045;-63
2022/11/09 00:24:48;;;;;;;8.50;1.13;;;;;;;;;;5028584;28;20029;-63
2022/11/09 00:27:13;;;;;;;4.40;1.38;;;;;;;;;;5029072;28;20056;-63
2022/11/09 00:29:38;;;;;;;3.80;0.82;;;;;;;;;;5027896;28;20045;-63
2022/11/09 00:32:04;;;;;;;6.25;1.10;;;;;;;;;;5027025;28;20041;-63
2022/11/09 00:34:29;;;;;;;5.90;1.50;;;;;;;;;;5028026;28;20156;-63
2022/11/09 00:36:55;;;;;;;6.95;1.10;;;;;;;;;;5028209;28;20094;-62
2022/11/09 00:39:20;;;;;;;7.60;1.23;;;;;;;;;;5042392;28;20048;-63
2022/11/09 00:41:45;;;;;;;5.32;1.10;;;;;;;;;;5041857;28;20045;-62
2022/11/09 00:44:11;;;;;;;4.53;1.33;;;;;;;;;;5047923;28;20422;-63
2022/11/09 00:46:36;;;;;;;6.78;1.10;;;;;;;;;;5045038;28;20049;-63
2022/11/09 00:49:01;;;;;;;9.52;1.50;;;;;;;;;;5039198;28;20349;-63
2022/11/09 00:51:26;;;;;;;5.55;1.08;;;;;;;;;;5048561;28;20032;-63
2022/11/09 00:53:53;;;;;;;2.75;1.20;;;;;;;;;;5047847;28;20072;-63
2022/11/09 00:56:19;;;;;;;5.38;1.10;;;;;;;;;;5046341;28;20464;-63
2022/11/09 00:58:44;;;;;;;6.85;0.82;;;;;;;;;;5046856;28;20037;-63
2022/11/09 01:01:16;;;;;;;7.93;1.42;;;;;;;;;;5048029;28;20041;-62
2022/11/09 01:03:42;;;;;;;3.35;1.38;;;;;;;;;;5048121;28;20051;-63
2022/11/09 01:06:12;;;;;;;3.85;1.38;;;;;;;;;;5048438;28;20405;-63
2022/11/09 01:08:37;;;;;;;3.65;1.40;;;;;;;;;;5048057;28;20048;-63
2022/11/09 01:11:05;;;;;;;3.75;1.48;;;;;;;;;;5055073;28;20045;-63
2022/11/09 01:13:31;;;;;;;7.10;1.55;;;;;;;;;;5067727;28;20092;-63
2022/11/09 01:15:56;;;;;;;2.53;1.15;;;;;;;;;;5066751;28;20127;-63
2022/11/09 01:18:21;;;;;;;9.15;1.95;;;;;;;;;;5037179;28;20065;-63
2022/11/09 01:20:48;;;;;;;6.55;1.10;;;;;;;;;;5047168;28;20033;-63
2022/11/09 01:23:15;;;;;;;4.63;1.45;;;;;;;;;;5047601;28;20048;-63
2022/11/09 01:25:41;;;;;;;5.47;1.30;;;;;;;;;;5045776;28;20033;-62
2022/11/09 01:28:07;;;;;;;4.15;1.52;;;;;;;;;;5043886;28;20025;-62
2022/11/09 01:30:38;;;;;;;6.65;1.70;;;;;;;;;;5046535;28;20040;-63
2022/11/09 01:33:04;;;;;;;6.35;1.60;;;;;;;;;;5047695;28;20549;-63
2022/11/09 01:35:33;;;;;;;4.90;1.63;;;;;;;;;;5035321;28;20048;-63
2022/11/09 01:37:58;;;;;;;5.53;1.63;;;;;;;;;;5025333;28;20482;-63
2022/11/09 01:40:23;;;;;;;6.70;1.35;;;;;;;;;;5041255;28;20533;-62
2022/11/09 01:42:49;;;;;;;8.07;1.50;;;;;;;;;;5047025;28;20052;-62
2022/11/09 01:45:21;;;;;;;6.72;1.40;;;;;;;;;;5047101;28;20035;-62
2022/11/09 01:48:07;;;;;;;7.72;1.70;;;;;;;;;;5054998;28;20070;-63
2022/11/09 01:50:49;;;;;;;4.72;1.50;;;;;;;;;;5066439;28;20102;-63
2022/11/09 01:53:22;;;;;;;6.20;1.30;;;;;;;;;;5066589;28;20050;-63
2022/11/09 01:55:55;;;;;;;8.02;1.30;;;;;;;;;;5066102;28;20051;-63
2022/11/09 01:58:28;;;;;;;6.22;1.30;;;;;;;;;;5043658;28;20078;-63
2022/11/09 02:00:55;;;;;;;5.25;1.30;;;;;;;;;;5046491;28;20049;-63
2022/11/09 02:03:31;;;;;;;6.93;1.23;;;;;;;;;;5046913;28;20027;-63
2022/11/09 02:06:00;;;;;;;4.93;1.30;;;;;;;;;;5046487;28;20056;-63
2022/11/09 02:08:26;;;;;;;5.85;1.48;;;;;;;;;;5044772;28;20406;-63
2022/11/09 02:11:03;;;;;;;4.80;1.80;;;;;;;;;;5041260;28;20511;-62
2022/11/09 02:13:30;;;;;;;9.73;1.60;;;;;;;;;;5040310;28;20518;-63
2022/11/09 02:15:55;;;;;;;7.70;1.45;;;;;;;;;;5045309;28;20025;-62
2022/11/09 02:18:21;;;;;;;6.07;1.23;;;;;;;;;;5044270;28;20020;-63
2022/11/09 02:20:52;;;;;;;3.75;1.20;;;;;;;;;;5031375;28;20025;-63
2022/11/09 02:23:18;;;;;;;6.18;1.42;;;;;;;;;;5024702;28;20049;-63
2022/11/09 02:25:47;;;;;;;3.60;1.40;;;;;;;;;;5026610;28;20045;-63
2022/11/09 02:28:14;;;;;;;5.22;1.50;;;;;;;;;;5058247;28;20031;-62
2022/11/09 02:30:41;;;;;;;4.90;1.35;;;;;;;;;;5065274;28;20194;-63
2022/11/09 02:33:06;;;;;;;4.30;1.30;;;;;;;;;;5066588;28;20029;-63
2022/11/09 02:35:31;;;;;;;8.40;1.42;;;;;;;;;;5065698;28;20039;-63
2022/11/09 02:37:57;;;;;;;3.78;1.40;;;;;;;;;;5066132;28;20043;-63
2022/11/09 02:40:28;;;;;;;3.88;1.38;;;;;;;;;;5034392;28;20022;-64
2022/11/09 02:42:55;;;;;;;6.70;1.67;;;;;;;;;;5025945;28;20029;-63
2022/11/09 02:45:21;;;;;;;5.43;1.40;;;;;;;;;;5040086;28;20494;-63
2022/11/09 02:47:46;;;;;;;8.75;1.40;;;;;;;;;;5031704;28;20052;-63
2022/11/09 02:50:11;;;;;;;6.78;1.50;;;;;;;;;;5037366;28;20033;-62
2022/11/09 02:52:37;;;;;;;6.43;1.30;;;;;;;;;;5025347;28;20038;-63
2022/11/09 02:55:02;;;;;;;5.07;1.27;;;;;;;;;;5025509;28;20112;-63
2022/11/09 02:57:28;;;;;;;5.95;2.25;;;;;;;;;;5037089;28;20025;-63
2022/11/09 02:59:53;;;;;;;4.32;1.20;;;;;;;;;;5028861;28;20107;-63
2022/11/09 03:02:18;;;;;;;5.50;1.45;;;;;;;;;;5025685;28;20061;-63
2022/11/09 03:04:44;;;;;;;7.95;1.60;;;;;;;;;;5041170;28;20469;-63
2022/11/09 03:07:09;;;;;;;6.57;2.28;;;;;;;;;;5040327;28;20032;-62
2022/11/09 03:09:34;;;;;;;6.07;1.52;;;;;;;;;;5025319;28;20053;-63
2022/11/09 03:12:27;;;;;;;5.45;1.40;;;;;;;;;;5056619;28;20700;-63
2022/11/09 03:14:45;;;;;;;4.18;1.30;;;;;;;;;;5065561;28;20569;-62
2022/11/09 03:17:12;;;;;;;5.55;1.70;;;;;;;;;;5065749;28;20147;-63
2022/11/09 03:19:38;;;;;;;6.82;1.70;;;;;;;;;;5039688;28;20036;-62
2022/11/09 03:22:03;;;;;;;5.95;1.58;;;;;;;;;;5032747;28;20033;-63
2022/11/09 03:24:28;;;;;;;3.92;1.42;;;;;;;;;;5044475;28;20028;-63
2022/11/09 03:26:54;;;;;;;5.15;1.27;;;;;;;;;;5042993;28;20147;-63
2022/11/09 03:29:19;;;;;;;6.68;1.73;;;;;;;;;;5045979;28;20091;-63
2022/11/09 03:31:44;;;;;;;5.90;1.70;;;;;;;;;;5045452;28;20033;-63
2022/11/09 03:34:09;;;;;;;5.72;1.42;;;;;;;;;;5045321;28;20119;-63
2022/11/09 03:36:35;;;;;;;6.25;1.75;;;;;;;;;;5043922;28;20028;-62
2022/11/09 03:39:00;;;;;;;5.15;1.38;;;;;;;;;;5045299;28;20437;-62
2022/11/09 03:41:25;;;;;;;8.00;1.48;;;;;;;;;;5045247;28;20044;-63
2022/11/09 03:43:51;;;;;;;4.78;1.55;;;;;;;;;;5044595;28;20461;-63
2022/11/09 03:46:16;;;;;;;9.75;1.80;;;;;;;;;;5044714;28;20055;-63
2022/11/09 03:48:41;;;;;;;5.82;1.63;;;;;;;;;;5044844;28;20108;-62
2022/11/09 03:51:06;;;;;;;6.10;1.10;;;;;;;;;;5045392;28;20560;-62
2022/11/09 03:53:32;;;;;;;8.65;1.60;;;;;;;;;;5044609;28;20037;-63
2022/11/09 03:55:57;;;;;;;6.35;1.52;;;;;;;;;;5044784;28;20068;-62
2022/11/09 03:58:22;;;;;;;5.90;1.45;;;;;;;;;;5044922;28;20083;-63
2022/11/09 04:00:48;;;;;;;6.88;1.17;;;;;;;;;;5044877;28;20028;-63
2022/11/09 04:03:13;;;;;;;5.85;1.60;;;;;;;;;;5045121;28;20544;-63
2022/11/09 04:05:38;;;;;;;8.30;1.92;;;;;;;;;;5034090;28;20037;-63
2022/11/09 04:08:04;;;;;;;9.68;1.73;;;;;;;;;;5044068;28;20029;-63
2022/11/09 04:10:29;;;;;;;6.35;1.30;;;;;;;;;;5046892;28;20059;-63
2022/11/09 04:12:54;;;;;;;6.28;1.45;;;;;;;;;;5065073;28;20728;-63
2022/11/09 04:15:20;;;;;;;5.00;1.27;;;;;;;;;;5046285;28;20017;-63
2022/11/09 04:17:56;;;;;;;4.30;1.52;;;;;;;;;;5039643;28;20029;-63
2022/11/09 04:20:22;;;;;;;4.43;1.60;;;;;;;;;;5048229;28;20598;-63
2022/11/09 04:22:59;;;;;;;8.35;1.52;;;;;;;;;;5048359;28;20103;-63
2022/11/09 04:25:25;;;;;;;4.85;1.38;;;;;;;;;;5047392;28;20025;-63
2022/11/09 04:27:57;;;;;;;4.57;1.50;;;;;;;;;;5046471;28;20082;-63
2022/11/09 04:30:23;;;;;;;9.13;1.52;;;;;;;;;;5048244;28;20112;-63
2022/11/09 04:32:48;;;;;;;4.03;1.23;;;;;;;;;;5048264;28;20053;-63
2022/11/09 04:35:14;;;;;;;5.65;1.40;;;;;;;;;;5048645;28;20103;-63
2022/11/09 04:37:39;;;;;;;7.07;1.52;;;;;;;;;;5047825;28;20071;-63
2022/11/09 04:40:05;;;;;;;8.27;1.35;;;;;;;;;;5048433;28;20399;-63
2022/11/09 04:42:30;;;;;;;7.85;1.50;;;;;;;;;;5048440;28;20135;-63
2022/11/09 04:44:56;;;;;;;6.03;1.15;;;;;;;;;;5048326;28;20029;-63
2022/11/09 04:47:21;;;;;;;3.03;1.58;;;;;;;;;;5046288;28;20427;-63
2022/11/09 04:49:46;;;;;;;7.65;1.30;;;;;;;;;;5048131;28;20509;-63
2022/11/09 04:52:11;;;;;;;3.85;1.73;;;;;;;;;;5046704;28;20104;-63
2022/11/09 04:54:37;;;;;;;8.80;1.63;;;;;;;;;;5038639;28;20028;-64
2022/11/09 04:57:02;;;;;;;5.85;1.58;;;;;;;;;;5046791;28;20045;-63
2022/11/09 04:59:27;;;;;;;5.13;1.33;;;;;;;;;;5048164;28;20143;-63
2022/11/09 05:01:53;;;;;;;5.47;1.50;;;;;;;;;;5046546;28;20040;-63
2022/11/09 05:04:18;;;;;;;5.97;1.52;;;;;;;;;;5035112;28;20039;-63
2022/11/09 05:06:43;;;;;;;11.18;1.63;;;;;;;;;;5067734;28;20024;-63
2022/11/09 05:09:09;;;;;;;7.60;1.42;;;;;;;;;;5067822;28;20021;-63
2022/11/09 05:11:35;;;;;;;5.32;2.20;;;;;;;;;;5055458;28;20048;-63
2022/11/09 05:14:01;;;;;;;3.58;1.23;;;;;;;;;;5047945;28;20055;-63
2022/11/09 05:16:27;;;;;;;4.28;1.20;;;;;;;;;;5047788;28;20044;-63
2022/11/09 05:18:53;;;;;;;3.53;1.13;;;;;;;;;;5047688;28;20060;-63
2022/11/09 05:21:19;;;;;;;9.88;1.58;;;;;;;;;;5033427;28;20914;-63
2022/11/09 05:23:59;;;;;;;5.55;1.40;;;;;;;;;;5027660;28;20128;-63
2022/11/09 05:26:27;;;;;;;6.68;1.30;;;;;;;;;;5027812;28;20546;-62
2022/11/09 05:28:52;;;;;;;6.93;1.38;;;;;;;;;;5027602;28;20437;-63
2022/11/09 05:31:18;;;;;;;4.88;1.80;;;;;;;;;;5026558;28;20659;-63
2022/11/09 05:33:43;;;;;;;9.00;1.42;;;;;;;;;;5025913;28;20026;-63
2022/11/09 05:36:09;;;;;;;4.45;1.45;;;;;;;;;;5026552;28;20074;-63
2022/11/09 05:38:34;;;;;;;5.45;1.65;;;;;;;;;;5028181;28;20546;-63
2022/11/09 05:40:59;;;;;;;4.50;1.25;;;;;;;;;;5045967;28;20051;-63
2022/11/09 05:43:24;;;;;;;6.25;1.40;;;;;;;;;;5046937;28;20035;-63
2022/11/09 05:45:50;;;;;;;3.53;1.35;;;;;;;;;;5046980;28;20021;-63
2022/11/09 05:48:16;;;;;;;6.20;1.42;;;;;;;;;;5046922;28;20056;-63
2022/11/09 05:50:42;;;;;;;6.82;1.45;;;;;;;;;;5046943;28;20135;-62
2022/11/09 05:53:10;;;;;;;5.45;1.40;;;;;;;;;;5046397;28;20533;-63
2022/11/09 05:55:35;;;;;;;2.90;1.10;;;;;;;;;;5046326;28;20033;-62
2022/11/09 05:58:00;;;;;;;2.95;1.48;;;;;;;;;;5047129;28;20037;-63
2022/11/09 06:00:26;;;;;;;2.90;1.60;;;;;;;;;;5047071;28;20013;-63
2022/11/09 06:02:52;;;;;;;5.93;1.50;;;;;;;;;;5046046;28;20045;-63
2022/11/09 06:05:19;;;;;;;4.97;1.70;;;;;;;;;;5040077;28;20036;-63
2022/11/09 06:07:44;;;;;;;7.40;1.55;;;;;;;;;;5046780;28;20060;-63
2022/11/09 06:10:10;;;;;;;4.10;1.67;;;;;;;;;;5046100;28;20631;-63
2022/11/09 06:12:35;;;;;;;6.85;1.33;;;;;;;;;;5066249;28;20029;-62
2022/11/09 06:15:01;;;;;;;5.88;1.30;;;;;;;;;;5066848;28;20103;-63
2022/11/09 06:17:26;;;;;;;4.75;1.40;;;;;;;;;;5064684;28;20517;-63
2022/11/09 06:19:52;;;;;;;4.53;1.42;;;;;;;;;;5061861;28;20120;-63
2022/11/09 06:22:17;;;;;;;5.95;1.50;;;;;;;;;;5034598;28;20746;-63
2022/11/09 06:24:43;;;;;;;9.80;1.70;;;;;;;;;;5046306;28;20036;-62
2022/11/09 06:27:08;;;;;;;6.85;1.55;;;;;;;;;;5046179;28;20040;-62
2022/11/09 06:29:33;;;;;;;6.82;1.80;;;;;;;;;;5045944;28;20045;-63
2022/11/09 06:31:59;;;;;;;2.90;1.48;;;;;;;;;;5045834;28;20033;-62
2022/11/09 06:34:24;;;;;;;9.10;1.75;;;;;;;;;;5043085;28;20104;-62
2022/11/09 06:36:49;;;;;;;6.40;1.40;;;;;;;;;;5028066;28;20029;-63
2022/11/09 06:39:15;;;;;;;8.90;1.92;;;;;;;;;;5043862;28;20059;-63
2022/11/09 06:41:40;;;;;;;9.95;2.20;;;;;;;;;;5043325;28;20044;-63
2022/11/09 06:44:05;;;;;;;8.50;2.03;;;;;;;;;;5045304;28;20036;-62
2022/11/09 06:46:31;;;;;;;6.10;2.10;;;;;;;;;;5044620;28;20060;-63
2022/11/09 06:48:57;;;;;;;8.10;2.05;;;;;;;;;;5033677;28;20120;-63
2022/11/09 06:51:22;;;;;;;7.45;1.50;;;;;;;;;;5025315;28;20116;-63
2022/11/09 06:53:48;;;;;;;7.60;1.67;;;;;;;;;;5032218;28;20131;-63
2022/11/09 06:56:13;;;;;;;3.75;1.67;;;;;;;;;;5031084;28;20068;-63
2022/11/09 06:58:39;;;;;;;9.88;2.28;;;;;;;;;;5038746;28;20041;-63
2022/11/09 07:01:13;;;;;;;3.20;2.08;;;;;;;;;;5045929;28;20078;-63
2022/11/09 07:03:39;;;;;;;15.70;3.70;;;;;;;;;;5041479;28;20020;-63
2022/11/09 07:06:09;;;;;;;12.95;3.10;;;;;;;;;;5042051;28;20029;-63
2022/11/09 07:08:35;;;;;;;11.07;2.08;;;;;;;;;;5043501;28;20033;-63
2022/11/09 07:11:05;;;;;;;12.25;3.15;;;;;;;;;;5052071;28;20127;-63
2022/11/09 07:13:31;;;;;;;8.10;2.38;;;;;;;;;;5063412;28;20548;-63
2022/11/09 07:15:56;;;;;;;5.30;1.92;;;;;;;;;;5064923;28;20059;-63
2022/11/09 07:18:22;;;;;;;12.23;2.65;;;;;;;;;;5063537;28;20448;-63
2022/11/09 07:20:47;;;;;;;9.95;1.75;;;;;;;;;;5035199;28;20159;-63
2022/11/09 07:23:13;;;;;;;11.35;2.60;;;;;;;;;;5039958;28;20033;-63
2022/11/09 07:25:38;;;;;;;10.73;2.47;;;;;;;;;;5045528;28;20048;-63
2022/11/09 07:28:06;;;;;;;6.22;1.55;;;;;;;;;;5045003;28;20044;-63
2022/11/09 07:30:31;;;;;;;10.32;2.35;;;;;;;;;;5039887;28;20025;-63
2022/11/09 07:32:58;;;;;;;11.93;2.80;;;;;;;;;;5045400;28;20033;-63
2022/11/09 07:35:24;;;;;;;8.18;2.10;;;;;;;;;;5035861;28;20048;-63
2022/11/09 07:37:50;;;;;;;6.03;1.73;;;;;;;;;;5039611;28;20033;-63
2022/11/09 07:40:15;;;;;;;12.30;2.08;;;;;;;;;;5043523;28;20461;-63
2022/11/09 07:42:40;;;;;;;7.40;1.77;;;;;;;;;;5039708;28;20033;-63
2022/11/09 07:45:06;;;;;;;6.72;1.75;;;;;;;;;;5061309;28;20020;-63
2022/11/09 07:47:31;;;;;;;12.43;2.08;;;;;;;;;;5063630;28;20048;-63
2022/11/09 07:49:57;;;;;;;10.38;1.77;;;;;;;;;;5047908;28;20460;-63
2022/11/09 07:52:22;;;;;;;7.05;1.67;;;;;;;;;;5044301;28;20108;-63
2022/11/09 07:54:47;;;;;;;8.65;1.58;;;;;;;;;;5046006;28;20016;-63
2022/11/09 07:57:13;;;;;;;6.72;1.30;;;;;;;;;;5048006;28;20795;-63
2022/11/09 07:59:38;;;;;;;4.78;1.70;;;;;;;;;;5033506;28;20042;-63
2022/11/09 08:02:04;;;;;;;7.47;1.50;;;;;;;;;;5037797;28;20051;-63
2022/11/09 08:04:29;;;;;;;5.20;1.67;;;;;;;;;;5051812;28;20028;-63
2022/11/09 08:06:54;;;;;;;6.50;1.90;;;;;;;;;;5068560;28;20109;-63
2022/11/09 08:09:20;;;;;;;4.97;1.52;;;;;;;;;;5036069;28;20023;-63
2022/11/09 08:11:45;;;;;;;10.98;2.15;;;;;;;;;;5061200;28;20033;-63
2022/11/09 08:14:10;;;;;;;9.10;1.23;;;;;;;;;;5068538;28;20039;-62
2022/11/09 08:16:35;;;;;;;9.57;1.55;;;;;;;;;;5051001;28;20030;-63
2022/11/09 08:19:01;;;;;;;6.35;1.30;;;;;;;;;;5043896;28;20033;-63
2022/11/09 08:21:26;;;;;;;4.10;1.67;;;;;;;;;;5045511;28;20182;-63
2022/11/09 08:23:52;;;;;;;6.78;1.60;;;;;;;;;;5037337;28;20049;-63
2022/11/09 08:26:17;;;;;;;4.57;1.20;;;;;;;;;;5042831;28;20033;-63
2022/11/09 08:28:42;;;;;;;3.63;1.52;;;;;;;;;;5049824;28;20060;-62
2022/11/09 08:31:08;;;;;;;6.43;1.83;;;;;;;;;;5067814;28;20035;-63
2022/11/09 08:33:36;;;;;;;4.13;1.50;;;;;;;;;;5067900;28;20433;-63
2022/11/09 08:36:13;;;;;;;3.45;0.98;;;;;;;;;;5049407;28;20036;-62
2022/11/09 08:38:40;;;;;;;5.80;1.35;;;;;;;;;;5048356;28;20089;-63
2022/11/09 08:41:06;;;;;;;9.77;1.38;;;;;;;;;;5048288;28;20033;-63
2022/11/09 08:43:31;;;;;;;5.35;1.17;;;;;;;;;;5046865;28;20028;-63
2022/11/09 08:45:56;;;;;;;9.82;1.45;;;;;;;;;;5047903;28;20029;-62
2022/11/09 08:48:21;;;;;;;6.05;1.48;;;;;;;;;;5048414;28;20052;-63
2022/11/09 08:50:52;;;;;;;9.35;1.35;;;;;;;;;;5047742;28;20040;-63
2022/11/09 08:53:17;;;;;;;4.53;1.92;;;;;;;;;;5043508;28;20029;-63
2022/11/09 08:55:42;;;;;;;5.50;1.42;;;;;;;;;;5048340;28;20029;-63
2022/11/09 08:58:08;;;;;;;4.13;1.10;;;;;;;;;;5048428;28;20395;-63
2022/11/09 09:00:33;;;;;;;7.85;1.45;;;;;;;;;;5047581;28;20401;-63
2022/11/09 09:03:03;;;;;;;7.60;1.20;;;;;;;;;;5046759;28;20052;-63
2022/11/09 09:05:29;;;;;;;3.80;1.55;;;;;;;;;;5042396;28;20039;-63
2022/11/09 09:07:54;;;;;;;6.68;1.55;;;;;;;;;;5040855;28;20037;-63
2022/11/09 09:10:19;;;;;;;5.90;1.63;;;;;;;;;;5049326;28;20029;-63
2022/11/09 09:12:45;;;;;;;3.55;1.50;;;;;;;;;;5067211;28;20117;-63
2022/11/09 09:15:10;;;;;;;10.73;1.88;;;;;;;;;;5067580;28;20024;-63
2022/11/09 09:17:36;;;;;;;5.38;1.40;;;;;;;;;;5067711;28;20028;-63
2022/11/09 09:20:01;;;;;;;4.53;1.02;;;;;;;;;;5064860;28;20029;-63
2022/11/09 09:22:26;;;;;;;4.50;1.27;;;;;;;;;;5067301;28;20020;-63
2022/11/09 09:24:52;;;;;;;6.57;1.80;;;;;;;;;;5066607;28;20260;-63
2022/11/09 09:27:17;;;;;;;6.30;1.55;;;;;;;;;;5055322;28;20028;-63
2022/11/09 09:29:43;;;;;;;2.92;1.00;;;;;;;;;;5045373;28;20025;-62
2022/11/09 09:32:08;;;;;;;9.07;1.35;;;;;;;;;;5046528;28;20029;-62
2022/11/09 09:34:33;;;;;;;4.75;1.23;;;;;;;;;;5046436;28;20028;-63
2022/11/09 09:36:59;;;;;;;6.53;1.33;;;;;;;;;;5044556;28;20028;-63
2022/11/09 09:39:24;;;;;;;6.20;1.60;;;;;;;;;;5046539;28;20151;-62
2022/11/09 09:41:57;;;;;;;4.15;1.20;;;;;;;;;;5045986;28;20501;-62
2022/11/09 09:44:35;;;;;;;;;;;;;;;;;;5044926;28;20045;-62
2022/11/09 09:47:52;;;;;;;6.35;1.40;;;;;;;;;;5033324;28;20694;-63
2022/11/09 09:50:21;;;;;;;6.03;1.42;;;;;;;;;;4999325;28;20034;-62
2022/11/09 09:53:01;;;;;;;9.85;1.83;;;;;;;;;;5028705;28;20566;-63
2022/11/09 09:55:37;;;;;;;4.30;1.38;;;;;;;;;;5024791;28;20030;-62
2022/11/09 09:58:11;;;;;;;5.90;1.85;;;;;;;;;;5036439;28;20048;-63
2022/11/09 10:00:38;;;;;;;3.58;1.40;;;;;;;;;;5038510;28;21009;-62
2022/11/09 10:03:05;;;;;;;4.75;1.48;;;;;;;;;;5044381;28;20115;-62
2022/11/09 10:06:20;;;;;;;4.47;1.30;;;;;;;;;;5042049;28;20052;-62
2022/11/09 10:09:03;;;;;;;7.40;1.60;;;;;;;;;;4977280;28;20101;-62
2022/11/09 10:11:40;;;;;;;8.13;1.27;;;;;;;;;;5043478;28;20041;-63
2022/11/09 10:14:30;;;;;;;7.63;1.48;;;;;;;;;;5041506;28;20061;-63
2022/11/09 10:17:13;;;;;;;5.93;1.33;;;;;;;;;;5052068;28;20035;-62
2022/11/09 10:19:57;;;;;;;10.65;1.52;;;;;;;;;;5039381;28;20029;-63
2022/11/09 10:22:32;;;;;;;7.40;1.50;;;;;;;;;;5025378;28;20037;-63
2022/11/09 10:25:08;;;;;;;9.40;1.30;;;;;;;;;;5036646;28;20527;-62
2022/11/09 10:27:36;;;;;;;5.85;1.90;;;;;;;;;;5060881;28;20052;-63
2022/11/09 10:30:13;;;;;;;8.32;1.80;;;;;;;;;;5043652;28;20502;-62
2022/11/09 10:32:40;;;;;;;4.75;1.50;;;;;;;;;;5045766;28;20040;-63
2022/11/09 10:35:21;;;;;;;9.13;1.60;;;;;;;;;;5042240;28;20040;-63
2022/11/09 10:37:49;;;;;;;11.85;1.52;;;;;;;;;;5044005;28;20067;-63
2022/11/09 10:40:30;;;;;;;5.35;1.45;;;;;;;;;;5043839;28;20035;-63
2022/11/09 10:42:58;;;;;;;6.18;1.27;;;;;;;;;;5041115;28;20059;-63
2022/11/09 10:45:36;;;;;;;8.27;1.67;;;;;;;;;;5045835;28;20025;-63
2022/11/09 10:48:03;;;;;;;5.72;1.40;;;;;;;;;;5043562;28;20552;-63
2022/11/09 10:50:36;;;;;;;6.50;1.08;;;;;;;;;;5044095;28;20052;-62
2022/11/09 10:53:16;;;;;;;6.65;1.08;;;;;;;;;;5044707;28;20037;-62
2022/11/09 10:55:52;;;;;;;7.03;1.33;;;;;;;;;;5045111;28;20720;-63
2022/11/09 10:58:37;;;;;;;6.10;1.10;;;;;;;;;;5044870;28;20041;-63
2022/11/09 11:01:15;;;;;;;6.30;1.30;;;;;;;;;;5044394;28;20037;-63
2022/11/09 11:03:42;;;;;;;6.90;1.48;;;;;;;;;;5046191;28;20028;-63
2022/11/09 11:06:14;;;;;;;6.95;1.58;;;;;;;;;;5044581;28;20021;-62
2022/11/09 11:08:42;;;;;;;8.05;1.25;;;;;;;;;;5045073;28;20139;-63
2022/11/09 11:11:26;;;;;;;4.75;1.33;;;;;;;;;;5052512;28;20763;-63
2022/11/09 11:14:08;;;;;;;6.95;1.50;;;;;;;;;;5064881;28;20033;-63
2022/11/09 11:16:34;;;;;;;4.63;1.55;;;;;;;;;;5064822;28;20040;-63
2022/11/09 11:19:01;;;;;;;6.22;1.30;;;;;;;;;;5061577;28;20407;-63
2022/11/09 11:21:27;;;;;;;8.63;1.50;;;;;;;;;;5044888;28;20095;-63
2022/11/09 11:24:19;;;;;;;5.97;1.60;;;;;;;;;;5043915;28;20244;-63
2022/11/09 11:27:05;;;;;;;6.50;1.73;;;;;;;;;;5037116;28;20119;-62
2022/11/09 11:29:54;;;;;;;6.63;1.27;;;;;;;;;;5028496;28;20038;-63
2022/11/09 11:32:20;;;;;;;3.13;1.50;;;;;;;;;;5024516;28;20037;-63
2022/11/09 11:34:46;;;;;;;4.45;1.23;;;;;;;;;;5024739;28;20044;-63
2022/11/09 11:37:42;;;;;;;7.85;1.33;;;;;;;;;;5023951;28;20029;-63
2022/11/09 11:40:17;;;;;;;3.92;1.05;;;;;;;;;;5038192;28;20144;-63
2022/11/09 11:42:52;;;;;;;4.97;1.48;;;;;;;;;;5039355;28;20036;-63
2022/11/09 11:45:50;;;;;;;6.20;1.40;;;;;;;;;;5043133;28;20094;-63
2022/11/09 11:48:59;;;;;;;5.90;1.52;;;;;;;;;;5044137;28;20266;-63
2022/11/09 11:51:35;;;;;;;7.50;1.58;;;;;;;;;;5044701;28;20069;-63
2022/11/09 11:54:34;;;;;;;6.18;1.55;;;;;;;;;;5044786;28;20452;-63
2022/11/09 11:57:33;;;;;;;3.30;0.90;;;;;;;;;;5044245;28;20060;-63
2022/11/09 12:00:12;;;;;;;7.93;1.30;;;;;;;;;;5036434;28;20049;-62
2022/11/09 12:03:22;;;;;;;4.25;1.10;;;;;;;;;;5047200;28;20051;-63
2022/11/09 12:05:50;;;;;;;4.13;1.17;;;;;;;;;;5032030;28;20463;-63
2022/11/09 12:09:00;;;;;;;7.13;1.45;;;;;;;;;;5032449;28;20033;-63
2022/11/09 12:11:37;;;;;;;2.00;1.05;;;;;;;;;;5031759;28;20056;-63
2022/11/09 12:14:25;;;;;;;3.42;1.17;;;;;;;;;;5034687;28;20091;-63
2022/11/09 12:17:12;;;;;;;3.75;1.15;;;;;;;;;;5033260;28;20048;-63
2022/11/09 12:20:15;;;;;;;5.82;1.83;;;;;;;;;;5042215;28;20037;-63
2022/11/09 12:22:53;;;;;;;3.03;1.10;;;;;;;;;;5024080;28;20048;-62
2022/11/09 12:25:24;;;;;;;5.63;1.40;;;;;;;;;;5041179;28;20171;-63
2022/11/09 12:28:11;;;;;;;5.43;1.13;;;;;;;;;;5042989;28;20468;-62
2022/11/09 12:31:01;;;;;;;5.15;1.25;;;;;;;;;;5039682;28;20509;-63
2022/11/09 12:33:51;;;;;;;6.20;1.48;;;;;;;;;;5039762;28;20025;-63
2022/11/09 12:36:23;;;;;;;6.25;0.98;;;;;;;;;;5032393;28;20077;-63
2022/11/09 12:39:34;;;;;;;3.53;1.40;;;;;;;;;;5044381;28;20584;-63
2022/11/09 12:42:16;;;;;;;6.82;1.58;;;;;;;;;;5026539;28;20135;-62
2022/11/09 12:45:13;;;;;;;6.28;1.38;;;;;;;;;;5034091;28;20045;-63
2022/11/09 12:47:41;;;;;;;4.35;1.20;;;;;;;;;;5035924;28;20084;-63
2022/11/09 12:50:13;;;;;;;4.43;1.27;;;;;;;;;;5040707;28;20041;-63
2022/11/09 12:52:39;;;;;;;5.57;1.10;;;;;;;;;;5034627;28;20044;-63
2022/11/09 12:55:05;;;;;;;5.30;1.30;;;;;;;;;;5034576;28;20461;-68
2022/11/09 12:57:32;;;;;;;6.25;1.23;;;;;;;;;;5035934;28;20115;-66
2022/11/09 12:59:59;;;;;;;6.70;1.13;;;;;;;;;;5032613;28;20037;-66
2022/11/09 13:02:33;;;;;;;4.72;1.20;;;;;;;;;;5039406;28;20584;-66
2022/11/09 13:05:06;;;;;;;4.85;1.17;;;;;;;;;;5047428;28;20518;-66
2022/11/09 13:07:52;;;;;;;6.10;1.80;;;;;;;;;;5045847;28;20037;-66
2022/11/09 13:10:39;;;;;;;5.90;1.40;;;;;;;;;;5047454;28;20564;-66
2022/11/09 13:13:10;;;;;;;2.97;1.20;;;;;;;;;;5067870;28;20038;-66
2022/11/09 13:15:36;;;;;;;7.00;1.13;;;;;;;;;;5067563;28;20052;-66
2022/11/09 13:18:31;;;;;;;4.65;1.50;;;;;;;;;;5047129;28;20401;-65
2022/11/09 13:21:22;;;;;;;4.80;1.27;;;;;;;;;;5036312;28;20057;-66
2022/11/09 13:23:56;;;;;;;6.35;1.13;;;;;;;;;;5041419;28;20048;-65
2022/11/09 13:26:30;;;;;;;5.10;1.42;;;;;;;;;;5035529;28;20545;-64
2022/11/09 13:29:11;;;;;;;2.90;1.25;;;;;;;;;;5043072;28;20049;-65
2022/11/09 13:31:58;;;;;;;10.30;1.30;;;;;;;;;;5041761;28;20049;-65
2022/11/09 13:34:47;;;;;;;3.65;1.20;;;;;;;;;;5039717;28;20537;-65
2022/11/09 13:37:40;;;;;;;9.10;1.35;;;;;;;;;;5034713;28;20033;-65
2022/11/09 13:40:30;;;;;;;8.85;1.30;;;;;;;;;;5042115;28;20544;-65
2022/11/09 13:43:13;;;;;;;6.68;1.20;;;;;;;;;;5036062;28;20113;-64
2022/11/09 13:45:55;;;;;;;8.70;1.77;;;;;;;;;;5025605;28;20029;-64
2022/11/09 13:48:30;;;;;;;5.18;1.60;;;;;;;;;;5022094;28;20080;-64
2022/11/09 13:51:02;;;;;;;5.35;1.48;;;;;;;;;;5026479;28;20059;-63
2022/11/09 13:53:36;;;;;;;11.60;2.20;;;;;;;;;;5035246;28;20028;-62
2022/11/09 13:56:29;;;;;;;4.97;1.63;;;;;;;;;;5039142;28;20057;-63
2022/11/09 13:59:24;;;;;;;1.48;1.00;;;;;;;;;;5036768;28;20699;-64
2022/11/09 14:01:55;;;;;;;3.90;1.30;;;;;;;;;;5041086;28;20076;-63
2022/11/09 14:04:32;;;;;;;7.97;1.92;;;;;;;;;;5043566;28;22160;-63
2022/11/09 14:07:24;;;;;;;4.40;1.88;;;;;;;;;;5046908;28;20127;-63
2022/11/09 14:10:17;;;;;;;7.47;1.80;;;;;;;;;;5043924;28;20029;-63
2022/11/09 14:13:11;;;;;;;7.72;1.30;;;;;;;;;;5038964;28;20037;-63
2022/11/09 14:15:47;;;;;;;3.67;1.35;;;;;;;;;;5038328;28;20025;-64
2022/11/09 14:18:30;;;;;;;3.22;1.10;;;;;;;;;;5035258;28;20029;-63
2022/11/09 14:21:29;;;;;;;4.53;1.27;;;;;;;;;;5043544;28;20037;-62
2022/11/09 14:24:00;;;;;;;9.77;1.50;;;;;;;;;;5040011;28;20041;-62
2022/11/09 14:26:26;;;;;;;7.75;1.85;;;;;;;;;;5040818;28;20128;-64
2022/11/09 14:28:51;;;;;;;9.43;2.38;;;;;;;;;;5045748;28;20141;-62
2022/11/09 14:31:28;;;;;;;7.07;1.65;;;;;;;;;;5045759;28;20040;-63
2022/11/09 14:34:00;;;;;;;6.40;1.95;;;;;;;;;;5049112;28;20141;-63
2022/11/09 14:36:27;;;;;;;2.85;1.55;;;;;;;;;;5041052;28;20036;-63
2022/11/09 14:38:54;;;;;;;8.00;2.05;;;;;;;;;;5044794;28;20041;-63
2022/11/09 14:41:23;;;;;;;7.45;1.67;;;;;;;;;;5047207;28;20040;-63
2022/11/09 14:43:49;;;;;;;5.50;1.67;;;;;;;;;;5065868;28;20077;-63
2022/11/09 14:46:25;;;;;;;7.10;1.60;;;;;;;;;;5065224;28;20063;-63
2022/11/09 14:48:56;;;;;;;10.00;2.15;;;;;;;;;;5065593;28;20532;-63
2022/11/09 14:51:29;;;;;;;3.40;1.80;;;;;;;;;;5062968;28;20032;-63
2022/11/09 14:53:56;;;;;;;14.88;1.85;;;;;;;;;;5062433;28;20036;-63
2022/11/09 14:56:23;;;;;;;6.90;1.73;;;;;;;;;;5062167;28;20072;-63
2022/11/09 14:58:49;;;;;;;8.80;3.25;;;;;;;;;;5061713;28;20171;-63
2022/11/09 15:01:19;;;;;;;8.93;2.92;;;;;;;;;;5061023;28;20119;-63
2022/11/09 15:04:03;;;;;;;6.72;2.80;;;;;;;;;;5065099;28;20026;-63